Time;durP1;ratioP1;P1;durP2;ratioP2;P2;SDS_P1;SDS_P2;PMS_P1;PMS_P2;Temp;Humidity;BMP_temperature;BMP_pressure;BME280_temperature;BME280_humidity;BME280_pressure;Samples;Min_cycle;Max_cycle;Signal;HPM_P1;HPM_P2
2022/09/27 00:01:00;;;;;;;9.20;1.90;;;;;;;9.36;100.00;99669.47;6123890;23;20002;-91
2022/09/27 00:03:28;;;;;;;10.93;2.20;;;;;;;9.30;100.00;99658.50;6096222;23;20041;-91
2022/09/27 00:06:11;;;;;;;4.95;1.60;;;;;;;9.36;100.00;99674.63;6096896;23;20017;-91
2022/09/27 00:08:39;;;;;;;7.82;1.92;;;;;;;9.45;100.00;99689.81;6123554;23;20009;-91
2022/09/27 00:11:09;;;;;;;7.43;1.77;;;;;;;9.32;100.00;99669.66;6097102;23;20006;-91
2022/09/27 00:13:34;;;;;;;7.72;1.65;;;;;;;9.47;100.00;99694.94;6123088;23;20033;-91
2022/09/27 00:16:06;;;;;;;7.85;1.58;;;;;;;9.39;100.00;99687.47;6123700;23;20030;-91
2022/09/27 00:18:31;;;;;;;8.20;1.65;;;;;;;9.42;100.00;99695.09;6097005;23;20080;-91
2022/09/27 00:21:05;;;;;;;4.88;1.50;;;;;;;9.29;100.00;99673.19;6097758;23;20025;-91
2022/09/27 00:23:30;;;;;;;9.35;2.13;;;;;;;9.32;100.00;99677.41;6096285;23;20030;-91
2022/09/27 00:25:58;;;;;;;9.15;1.92;;;;;;;9.31;100.00;99673.13;6097600;23;20033;-91
2022/09/27 00:28:25;;;;;;;9.70;2.28;;;;;;;9.41;100.00;99690.84;6123382;23;20377;-92
2022/09/27 00:30:53;;;;;;;7.50;2.10;;;;;;;9.28;100.00;99674.06;6097797;23;20064;-91
2022/09/27 00:33:19;;;;;;;8.85;2.08;;;;;;;9.36;100.00;99691.91;6097316;23;20013;-92
2022/09/27 00:35:44;;;;;;;6.25;2.55;;;;;;;9.38;100.00;99701.28;6122049;23;20002;-91
2022/09/27 00:38:12;;;;;;;6.28;1.70;;;;;;;9.30;100.00;99692.97;6120649;23;20395;-91
2022/09/27 00:40:41;;;;;;;5.25;1.70;;;;;;;9.35;100.00;99696.22;6096901;23;20140;-91
2022/09/27 00:43:20;;;;;;;6.13;1.50;;;;;;;9.43;100.00;99720.06;6121252;23;20057;-91
2022/09/27 00:45:57;;;;;;;9.65;1.63;;;;;;;9.44;100.00;99708.81;6094671;23;20006;-91
2022/09/27 00:48:30;;;;;;;10.73;1.38;;;;;;;9.41;100.00;99695.19;6095926;23;20035;-89
2022/09/27 00:51:00;;;;;;;4.43;1.30;;;;;;;9.40;100.00;99701.25;6123014;23;20006;-91
2022/09/27 00:53:51;;;;;;;3.47;1.13;;;;;;;9.50;100.00;99720.69;6097803;23;20530;-91
2022/09/27 00:56:28;;;;;;;4.82;1.45;;;;;;;9.41;100.00;99711.53;6096405;23;20002;-91
2022/09/27 00:59:00;;;;;;;5.55;1.27;;;;;;;9.47;100.00;99718.22;6122355;23;20005;-91
2022/09/27 01:01:29;;;;;;;4.07;0.88;;;;;;;9.39;100.00;99708.16;6096764;23;20006;-91
2022/09/27 01:04:08;;;;;;;5.05;1.10;;;;;;;9.44;100.00;99719.16;6096340;23;20010;-91
2022/09/27 01:06:34;;;;;;;4.05;0.80;;;;;;;9.39;100.00;99707.31;6097429;23;20348;-91
2022/09/27 01:09:00;;;;;;;8.68;1.10;;;;;;;9.46;100.00;99724.28;6122088;23;20093;-91
2022/09/27 01:11:37;;;;;;;5.43;1.08;;;;;;;9.56;100.00;99727.38;6122099;23;20010;-91
2022/09/27 01:14:30;;;;;;;2.35;0.75;;;;;;;9.58;100.00;99730.75;6096878;23;20156;-91
2022/09/27 01:17:14;;;;;;;5.53;0.88;;;;;;;9.45;100.00;99705.34;6122825;23;20065;-91
2022/09/27 01:20:16;;;;;;;6.97;0.90;;;;;;;9.54;100.00;99721.41;6122364;23;20033;-91
2022/09/27 01:23:09;;;;;;;3.63;0.80;;;;;;;9.52;100.00;99731.81;6122710;23;20014;-91
2022/09/27 01:25:46;;;;;;;4.03;0.70;;;;;;;9.48;100.00;99725.91;6122246;23;20009;-91
2022/09/27 01:28:36;;;;;;;4.20;0.88;;;;;;;9.44;100.00;99718.31;6096953;23;20058;-90
2022/09/27 01:31:18;;;;;;;4.63;0.80;;;;;;;9.39;100.00;99722.81;6096783;23;20005;-91
2022/09/27 01:33:57;;;;;;;4.18;0.90;;;;;;;9.41;100.00;99721.03;6122445;23;20436;-92
2022/09/27 01:36:45;;;;;;;6.22;1.10;;;;;;;9.29;100.00;99714.56;6122971;23;20005;-91
2022/09/27 01:39:32;;;;;;;5.05;1.20;;;;;;;9.31;100.00;99720.53;6122316;23;20001;-91
2022/09/27 01:42:07;;;;;;;4.40;0.95;;;;;;;9.27;100.00;99718.13;6096222;23;20006;-91
2022/09/27 01:44:38;;;;;;;4.20;1.00;;;;;;;9.18;100.00;99718.44;6121715;23;20009;-91
2022/09/27 01:47:12;;;;;;;7.28;1.25;;;;;;;9.26;100.00;99740.53;6122224;23;20053;-91
2022/09/27 01:49:53;;;;;;;3.83;1.00;;;;;;;9.19;100.00;99727.88;6122440;23;20459;-91
2022/09/27 01:52:23;;;;;;;5.05;0.95;;;;;;;9.19;100.00;99730.47;6122844;23;20642;-91
2022/09/27 01:54:55;;;;;;;7.22;1.10;;;;;;;9.26;100.00;99744.88;6120902;23;20329;-90
2022/09/27 01:57:26;;;;;;;4.97;1.25;;;;;;;9.15;100.00;99742.66;6096605;23;20006;-91
2022/09/27 01:59:58;;;;;;;7.50;1.33;;;;;;;9.03;100.00;99718.09;6121240;23;20335;-91
2022/09/27 02:02:27;;;;;;;4.22;1.17;;;;;;;9.21;100.00;99746.78;6095835;23;20424;-91
2022/09/27 02:05:01;;;;;;;5.60;1.27;;;;;;;9.19;100.00;99748.56;6121826;23;20665;-90
2022/09/27 02:07:35;;;;;;;9.60;2.03;;;;;;;9.18;100.00;99739.97;6122685;23;20025;-91
2022/09/27 02:10:16;;;;;;;7.60;1.98;;;;;;;9.15;100.00;99734.88;6121377;23;20002;-91
2022/09/27 02:12:58;;;;;;;9.52;2.03;;;;;;;9.17;100.00;99737.44;6122247;23;20010;-91
2022/09/27 02:15:26;;;;;;;10.10;1.90;;;;;;;9.09;100.00;99735.09;6096003;23;20068;-91
2022/09/27 02:18:00;;;;;;;9.45;2.05;;;;;;;9.11;100.00;99743.66;6122101;23;20048;-90
2022/09/27 02:20:29;;;;;;;10.50;1.95;;;;;;;9.09;100.00;99748.88;6122060;23;20010;-91
2022/09/27 02:23:06;;;;;;;7.90;1.45;;;;;;;8.98;100.00;99732.91;6116091;23;20018;-90
2022/09/27 02:25:45;;;;;;;6.28;1.60;;;;;;;9.02;100.00;99743.97;6122271;23;20056;-91
2022/09/27 02:28:35;;;;;;;6.90;1.42;;;;;;;9.05;100.00;99751.63;6122074;23;20331;-90
2022/09/27 02:31:00;;;;;;;6.03;1.50;;;;;;;8.95;100.00;99745.94;6121661;23;19994;-91
2022/09/27 02:33:36;;;;;;;4.72;1.30;;;;;;;8.95;100.00;99753.69;6121416;23;20010;-90
2022/09/27 02:36:02;;;;;;;6.15;1.50;;;;;;;8.90;100.00;99752.16;6122085;23;20002;-91
2022/09/27 02:38:28;;;;;;;6.80;1.50;;;;;;;8.87;100.00;99747.94;6121855;23;20010;-90
2022/09/27 02:40:53;;;;;;;5.88;1.35;;;;;;;8.78;100.00;99737.09;6121852;23;20022;-90
2022/09/27 02:43:30;;;;;;;3.80;1.20;;;;;;;8.83;100.00;99755.84;6122339;23;20436;-91
2022/09/27 02:46:21;;;;;;;4.45;1.40;;;;;;;8.82;100.00;99756.75;6120682;23;20002;-91
2022/09/27 02:49:03;;;;;;;6.18;1.25;;;;;;;8.79;100.00;99756.84;6104521;23;20016;-90
2022/09/27 02:51:52;;;;;;;5.40;1.17;;;;;;;8.75;100.00;99760.44;6120461;23;20014;-90
2022/09/27 02:54:32;;;;;;;8.05;1.27;;;;;;;8.71;100.00;99760.53;6122032;23;20325;-90
2022/09/27 02:57:12;;;;;;;9.52;1.48;;;;;;;8.66;100.00;99749.53;6118925;23;20077;-90
2022/09/27 02:59:43;;;;;;;7.43;2.33;;;;;;;8.66;100.00;99751.25;6121189;23;20440;-91
2022/09/27 03:02:14;;;;;;;5.55;1.10;;;;;;;8.62;100.00;99752.25;6121687;23;20423;-91
2022/09/27 03:04:46;;;;;;;6.65;1.15;;;;;;;8.55;100.00;99745.59;6120439;23;20002;-91
2022/09/27 03:07:13;;;;;;;4.75;1.05;;;;;;;8.49;100.00;99738.06;6121115;23;20021;-90
2022/09/27 03:09:43;;;;;;;4.47;1.00;;;;;;;8.48;100.00;99750.13;6119505;23;20033;-91
2022/09/27 03:12:09;;;;;;;5.13;1.10;;;;;;;8.31;100.00;99737.78;6118558;23;20057;-91
2022/09/27 03:14:34;;;;;;;4.80;1.10;;;;;;;8.29;100.00;99738.66;6121005;23;20009;-90
2022/09/27 03:16:59;;;;;;;4.93;0.88;;;;;;;8.33;100.00;99753.19;6121542;23;20440;-90
2022/09/27 03:19:25;;;;;;;7.57;1.02;;;;;;;8.20;100.00;99734.63;6119638;23;20012;-90
2022/09/27 03:21:50;;;;;;;6.13;1.10;;;;;;;8.11;100.00;99727.19;6120416;23;20041;-90
2022/09/27 03:24:16;;;;;;;5.15;0.88;;;;;;;8.21;100.00;99746.66;6122084;23;20092;-91
2022/09/27 03:26:41;;;;;;;9.15;1.10;;;;;;;8.20;100.00;99739.78;6121461;23;20332;-91
2022/09/27 03:29:07;;;;;;;5.45;0.93;;;;;;;8.21;100.00;99745.81;6121422;23;20002;-91
2022/09/27 03:31:32;;;;;;;4.25;0.95;;;;;;;8.15;100.00;99748.59;6119612;23;20009;-90
2022/09/27 03:33:57;;;;;;;6.22;1.00;;;;;;;8.14;100.00;99754.63;6120172;23;20053;-90
2022/09/27 03:36:23;;;;;;;3.22;0.85;;;;;;;8.13;100.00;99763.25;6121907;23;20388;-90
2022/09/27 03:38:48;;;;;;;9.30;1.42;;;;;;;8.10;100.00;99769.38;6121816;23;20006;-90
2022/09/27 03:41:14;;;;;;;7.68;1.10;;;;;;;8.03;100.00;99761.88;6119850;23;20009;-90
2022/09/27 03:43:39;;;;;;;7.10;1.10;;;;;;;8.09;100.00;99780.59;6119977;23;20410;-91
2022/09/27 03:46:04;;;;;;;7.93;1.25;;;;;;;8.06;100.00;99767.78;6120058;23;20006;-90
2022/09/27 03:48:30;;;;;;;7.75;1.10;;;;;;;8.07;100.00;99768.63;6120477;23;20014;-90
2022/09/27 03:50:56;;;;;;;8.02;1.25;;;;;;;7.99;100.00;99765.41;6120484;23;20436;-91
2022/09/27 03:53:21;;;;;;;5.88;1.00;;;;;;;8.07;100.00;99789.25;6119406;23;20478;-91
2022/09/27 03:55:47;;;;;;;6.45;1.40;;;;;;;8.17;100.00;99813.91;6120158;23;20073;-90
2022/09/27 03:58:13;;;;;;;6.13;1.70;;;;;;;8.11;100.00;99806.38;6122295;23;20436;-90
2022/09/27 04:00:40;;;;;;;7.05;1.30;;;;;;;8.24;100.00;99802.50;6119433;23;20013;-92
2022/09/27 04:03:06;;;;;;;5.35;1.48;;;;;;;8.18;100.00;99789.81;6120486;23;20006;-91
2022/09/27 04:05:31;;;;;;;6.22;1.40;;;;;;;8.22;100.00;99786.22;6121074;23;20005;-90
2022/09/27 04:07:57;;;;;;;5.63;0.98;;;;;;;8.33;100.00;99809.97;6121876;23;20332;-90
2022/09/27 04:10:23;;;;;;;3.55;1.38;;;;;;;8.21;100.00;99784.53;6121322;23;20071;-91
2022/09/27 04:12:48;;;;;;;3.45;0.90;;;;;;;8.28;100.00;99801.50;6121390;23;20006;-91
2022/09/27 04:15:14;;;;;;;2.63;0.70;;;;;;;8.33;100.00;99802.25;6120473;23;20010;-91
2022/09/27 04:17:41;;;;;;;5.97;0.90;;;;;;;8.29;100.00;99793.72;6119452;23;20034;-90
2022/09/27 04:20:07;;;;;;;4.47;0.90;;;;;;;8.19;100.00;99769.06;6118379;23;20013;-90
2022/09/27 04:22:32;;;;;;;2.53;0.70;;;;;;;8.26;100.00;99782.63;6121187;23;20014;-90
2022/09/27 04:24:58;;;;;;;15.38;1.77;;;;;;;8.12;100.00;99759.84;6122253;23;20396;-90
2022/09/27 04:27:23;;;;;;;2.08;0.75;;;;;;;8.08;100.00;99753.09;6122346;23;20028;-91
2022/09/27 04:29:49;;;;;;;6.07;1.25;;;;;;;8.05;100.00;99750.59;6122526;23;20017;-90
2022/09/27 04:32:14;;;;;;;4.18;1.00;;;;;;;8.10;100.00;99766.81;6122515;23;20076;-90
2022/09/27 04:37:24;;;;;;;1.23;0.70;;;;;;;8.04;100.00;99763.56;6123042;23;20097;-91
2022/09/27 04:39:50;;;;;;;5.20;0.93;;;;;;;8.02;100.00;99771.34;6096471;23;20036;-90
2022/09/27 04:42:16;;;;;;;2.03;0.90;;;;;;;8.03;100.00;99769.63;6123435;23;20003;-90
2022/09/27 04:44:42;;;;;;;4.63;1.20;;;;;;;7.92;100.00;99752.72;6122353;23;20006;-90
2022/09/27 04:47:08;;;;;;;3.33;1.13;;;;;;;7.99;100.00;99768.00;6123109;23;20024;-90
2022/09/27 04:49:34;;;;;;;3.75;1.40;;;;;;;8.01;100.00;99763.66;6122987;23;20093;-90
2022/09/27 04:51:59;;;;;;;4.43;1.30;;;;;;;7.97;100.00;99773.22;6097144;23;20002;-91
2022/09/27 04:54:25;;;;;;;4.35;1.35;;;;;;;8.02;100.00;99783.41;6122691;23;20006;-90
2022/09/27 04:56:50;;;;;;;4.47;1.40;;;;;;;7.98;100.00;99780.09;6122645;23;20030;-91
2022/09/27 04:59:16;;;;;;;5.60;1.52;;;;;;;8.02;100.00;99783.41;6096983;23;20495;-91
2022/09/27 05:01:41;;;;;;;2.03;1.00;;;;;;;8.04;100.00;99797.97;6096872;23;20009;-91
2022/09/27 05:04:06;;;;;;;6.20;1.25;;;;;;;8.06;100.00;99800.47;6122445;23;20321;-90
2022/09/27 05:06:32;;;;;;;6.63;1.38;;;;;;;8.07;100.00;99805.59;6096492;23;19998;-90
2022/09/27 05:08:58;;;;;;;4.25;1.25;;;;;;;8.09;100.00;99831.38;6095440;23;20511;-92
2022/09/27 05:11:24;;;;;;;4.60;1.00;;;;;;;8.03;100.00;99836.72;6120087;23;20012;-90
2022/09/27 05:13:49;;;;;;;4.35;1.02;;;;;;;8.10;100.00;99845.97;6120888;23;20010;-91
2022/09/27 05:16:15;;;;;;;5.68;0.93;;;;;;;8.11;100.00;99837.34;6095396;23;20006;-90
2022/09/27 05:18:41;;;;;;;5.47;0.90;;;;;;;8.12;100.00;99839.03;6121077;23;20005;-91
2022/09/27 05:21:06;;;;;;;5.07;1.00;;;;;;;8.11;100.00;99825.28;6121434;23;20467;-91
2022/09/27 05:23:32;;;;;;;5.97;0.90;;;;;;;8.15;100.00;99834.59;6097377;23;20336;-92
2022/09/27 05:25:57;;;;;;;4.28;1.08;;;;;;;8.09;100.00;99821.88;6095129;23;20006;-91
2022/09/27 05:28:23;;;;;;;4.03;1.30;;;;;;;8.00;100.00;99801.50;6096835;23;20416;-91
2022/09/27 05:30:49;;;;;;;5.53;1.20;;;;;;;8.08;100.00;99803.84;6096067;23;20002;-92
2022/09/27 05:33:14;;;;;;;4.65;1.05;;;;;;;7.89;100.00;99778.63;6095697;23;20108;-92
2022/09/27 05:35:41;;;;;;;3.05;0.90;;;;;;;8.04;100.00;99807.44;6096561;23;21079;-91
2022/09/27 05:38:06;;;;;;;5.65;0.88;;;;;;;8.02;100.00;99798.88;6123528;23;20077;-92
2022/09/27 05:40:32;;;;;;;3.97;1.48;;;;;;;7.94;100.00;99801.69;6096057;23;20025;-91
2022/09/27 05:42:57;;;;;;;2.15;0.70;;;;;;;7.92;100.00;99799.16;6121727;23;20008;-91
2022/09/27 05:45:24;;;;;;;6.70;1.80;;;;;;;7.91;100.00;99797.47;6121782;23;20002;-91
2022/09/27 05:47:57;;;;;;;2.90;0.82;;;;;;;7.95;100.00;99803.38;6120122;23;20030;-92
2022/09/27 05:50:26;;;;;;;1.55;0.75;;;;;;;7.92;100.00;99794.00;6095505;23;20335;-92
2022/09/27 05:52:52;;;;;;;2.38;0.85;;;;;;;7.90;100.00;99795.78;6122006;23;20028;-92
2022/09/27 05:55:18;;;;;;;2.75;1.10;;;;;;;7.93;100.00;99787.94;6094815;23;20010;-91
2022/09/27 05:58:01;;;;;;;4.72;1.23;;;;;;;7.98;100.00;99794.72;6122233;23;20002;-91
2022/09/27 06:00:27;;;;;;;4.63;1.00;;;;;;;7.96;100.00;99789.59;6121101;23;20536;-89
2022/09/27 06:02:57;;;;;;;3.15;0.80;;;;;;;7.84;100.00;99759.00;6121825;23;20009;-90
2022/09/27 06:05:24;;;;;;;3.55;0.93;;;;;;;7.93;100.00;99782.78;6120318;23;20006;-91
2022/09/27 06:07:50;;;;;;;4.72;0.90;;;;;;;7.91;100.00;99788.91;6122447;23;20006;-90
2022/09/27 06:10:18;;;;;;;4.78;1.00;;;;;;;7.91;100.00;99789.72;6093896;23;20451;-91
2022/09/27 06:12:43;;;;;;;2.70;0.88;;;;;;;7.77;100.00;99778.16;6095411;23;20006;-91
2022/09/27 06:15:09;;;;;;;4.53;0.85;;;;;;;7.83;100.00;99799.44;6095676;23;20006;-91
2022/09/27 06:17:34;;;;;;;3.80;0.90;;;;;;;7.91;100.00;99805.19;6095183;23;20033;-91
2022/09/27 06:20:00;;;;;;;5.82;0.80;;;;;;;7.84;100.00;99801.13;6119359;23;20040;-91
2022/09/27 06:22:25;;;;;;;4.43;1.02;;;;;;;7.79;100.00;99790.09;6106764;23;20400;-91
2022/09/27 06:24:51;;;;;;;1.92;0.73;;;;;;;7.81;100.00;99800.38;6120044;23;20013;-90
2022/09/27 06:27:17;;;;;;;2.58;0.90;;;;;;;7.94;100.00;99819.75;6121317;23;20044;-91
2022/09/27 06:29:43;;;;;;;4.63;1.10;;;;;;;7.93;100.00;99821.47;6120904;23;20018;-90
2022/09/27 06:32:09;;;;;;;4.38;1.02;;;;;;;7.88;100.00;99807.88;6119305;23;20034;-91
2022/09/27 06:34:35;;;;;;;1.42;0.90;;;;;;;7.92;100.00;99819.78;6119870;23;20010;-89
2022/09/27 06:37:00;;;;;;;3.65;1.00;;;;;;;7.93;100.00;99820.63;6121428;23;20009;-90
2022/09/27 06:39:26;;;;;;;3.15;1.05;;;;;;;7.87;100.00;99819.09;6121133;23;20514;-90
2022/09/27 06:41:56;;;;;;;3.70;1.20;;;;;;;7.96;100.00;99830.03;6119869;23;20101;-90
2022/09/27 06:44:23;;;;;;;3.33;1.00;;;;;;;7.94;100.00;99819.75;6120771;23;20029;-90
2022/09/27 06:46:49;;;;;;;3.72;1.15;;;;;;;7.94;100.00;99822.34;6121134;23;20002;-90
2022/09/27 06:49:24;;;;;;;2.25;1.17;;;;;;;7.97;100.00;99829.16;6121954;23;20010;-95
2022/09/27 06:51:50;;;;;;;2.78;1.23;;;;;;;7.94;100.00;99820.59;6121751;23;20571;-89
2022/09/27 06:54:15;;;;;;;2.28;1.00;;;;;;;8.00;100.00;99827.31;6121988;23;20001;-89
2022/09/27 06:56:40;;;;;;;3.85;1.20;;;;;;;7.99;100.00;99820.47;6119901;23;20368;-89
2022/09/27 07:01:52;;;;;;;4.27;1.30;;;;;;;8.00;100.00;99829.03;6120984;23;20020;-90
2022/09/27 07:04:18;;;;;;;2.65;1.20;;;;;;;8.06;100.00;99840.03;6120360;23;20002;-91
2022/09/27 07:06:44;;;;;;;3.78;1.48;;;;;;;8.02;100.00;99842.75;6120878;23;20006;-90
2022/09/27 07:09:09;;;;;;;5.07;1.52;;;;;;;7.92;100.00;99827.53;6120076;23;20336;-91
2022/09/27 07:11:39;;;;;;;4.40;1.60;;;;;;;7.92;100.00;99819.78;6122277;23;20002;-91
2022/09/27 07:14:05;;;;;;;2.25;1.67;;;;;;;8.00;100.00;99829.88;6122052;23;20006;-91
2022/09/27 07:16:30;;;;;;;4.50;1.75;;;;;;;7.99;100.00;99822.19;6121860;23;20009;-91
2022/09/27 07:18:59;;;;;;;5.00;2.28;;;;;;;8.09;100.00;99845.13;6122135;23;20006;-91
2022/09/27 07:21:24;;;;;;;5.50;2.45;;;;;;;8.09;100.00;99834.78;6119725;23;20018;-90
2022/09/27 07:23:50;;;;;;;6.07;2.47;;;;;;;8.18;100.00;99844.00;6122330;23;20061;-91
2022/09/27 07:26:15;;;;;;;7.30;2.80;;;;;;;8.20;100.00;99842.19;6122038;23;20055;-91
2022/09/27 07:28:41;;;;;;;6.50;2.80;;;;;;;8.26;100.00;99842.00;6122133;23;20010;-89
2022/09/27 07:31:07;;;;;;;6.10;2.78;;;;;;;8.32;100.00;99860.78;6122025;23;20017;-91
2022/09/27 07:33:33;;;;;;;5.80;2.70;;;;;;;8.24;100.00;99839.50;6122079;23;20009;-91
2022/09/27 07:35:59;;;;;;;5.80;3.10;;;;;;;8.38;100.00;99858.91;6121959;23;20033;-90
2022/09/27 07:38:25;;;;;;;5.10;2.95;;;;;;;8.42;100.00;99860.50;6122657;23;20026;-92
2022/09/27 07:40:50;;;;;;;7.70;3.13;;;;;;;8.43;100.00;99867.38;6121865;23;20392;-91
2022/09/27 07:43:16;;;;;;;6.30;3.03;;;;;;;8.33;100.00;99843.56;6122053;23;20005;-92
2022/09/27 07:45:42;;;;;;;6.35;3.50;;;;;;;8.43;100.00;99860.47;6120063;23;20029;-91
2022/09/27 07:48:11;;;;;;;5.93;3.38;;;;;;;8.51;100.00;99862.81;6122078;23;20049;-91
2022/09/27 07:50:37;;;;;;;7.07;3.80;;;;;;;8.49;100.00;99864.59;6119635;23;20006;-91
2022/09/27 07:53:03;;;;;;;5.93;4.05;;;;;;;8.53;100.00;99856.69;6122113;23;20005;-91
2022/09/27 07:55:29;;;;;;;10.52;4.70;;;;;;;8.58;100.00;99872.91;6122331;23;20028;-91
2022/09/27 07:58:07;;;;;;;8.73;5.22;;;;;;;8.61;100.00;99867.63;6123890;23;20134;-91
2022/09/27 08:00:33;;;;;;;9.40;5.25;;;;;;;8.67;100.00;99872.59;6121678;23;20065;-91
2022/09/27 08:03:04;;;;;;;12.25;6.05;;;;;;;8.68;100.00;99873.44;6123432;23;20006;-91
2022/09/27 08:05:30;;;;;;;9.48;5.93;;;;;;;8.70;100.00;99874.25;6123329;23;20025;-91
2022/09/27 08:07:56;;;;;;;9.02;5.90;;;;;;;8.71;100.00;99876.81;6124107;23;20005;-91
2022/09/27 08:10:24;;;;;;;8.75;5.30;;;;;;;8.80;100.00;99874.81;6123590;23;20002;-91
2022/09/27 08:12:49;;;;;;;10.48;5.75;;;;;;;8.75;100.00;99863.78;6121822;23;20002;-90
2022/09/27 08:15:14;;;;;;;10.80;5.28;;;;;;;8.92;100.00;99885.59;6121924;23;20088;-90
2022/09/27 08:17:40;;;;;;;11.07;4.93;;;;;;;8.91;100.00;99868.41;6123676;23;20002;-91
2022/09/27 08:20:05;;;;;;;10.35;5.45;;;;;;;9.05;100.00;99879.13;6121797;23;20040;-90
2022/09/27 08:22:31;;;;;;;11.43;5.00;;;;;;;9.11;100.00;99891.00;6121273;23;20014;-91
2022/09/27 08:24:56;;;;;;;12.13;5.40;;;;;;;9.17;100.00;99883.06;6123562;23;20065;-91
2022/09/27 08:27:22;;;;;;;12.45;5.40;;;;;;;9.15;100.00;99873.66;6121899;23;19998;-91
2022/09/27 08:29:47;;;;;;;9.88;5.32;;;;;;;9.21;100.00;99879.47;6123738;23;20033;-90
2022/09/27 08:32:13;;;;;;;11.77;5.07;;;;;;;9.23;100.00;99877.69;6123166;23;20009;-91
2022/09/27 08:34:39;;;;;;;8.23;4.90;;;;;;;9.29;100.00;99882.63;6123305;23;20010;-90
2022/09/27 08:37:05;;;;;;;10.93;5.07;;;;;;;9.33;100.00;99873.91;6124027;23;20002;-90
2022/09/27 08:39:30;;;;;;;9.32;5.18;;;;;;;9.39;100.00;99875.41;6122715;23;20125;-91
2022/09/27 08:42:11;;;;;;;9.98;5.72;;;;;;;9.47;100.00;99879.44;6147025;23;20002;-90
2022/09/27 08:45:17;;;;;;;11.57;5.60;;;;;;;9.58;100.00;99878.22;6121672;23;20341;-90
2022/09/27 08:47:53;;;;;;;10.68;5.82;;;;;;;9.59;100.00;99891.09;6061749;23;20003;-91
2022/09/27 08:50:27;;;;;;;12.88;5.90;;;;;;;9.61;100.00;99903.97;6116926;23;20085;-90
2022/09/27 08:53:04;;;;;;;11.05;6.00;;;;;;;9.50;100.00;99886.22;6123527;23;20028;-91
2022/09/27 08:55:36;;;;;;;10.32;6.45;;;;;;;9.43;100.00;99883.00;6123239;23;20445;-90
2022/09/27 08:58:12;;;;;;;10.90;6.20;;;;;;;9.37;100.00;99888.41;6122604;23;20341;-91
2022/09/27 09:00:38;;;;;;;11.10;6.20;;;;;;;9.47;100.00;99904.47;6123588;23;20436;-91
2022/09/27 09:03:22;;;;;;;16.58;6.75;;;;;;;9.45;100.00;99907.09;6123512;23;20008;-90
2022/09/27 09:06:07;;;;;;;;;;;;;;;9.49;100.00;99908.66;6123607;23;20002;-90
2022/09/27 09:09:03;;;;;;;17.10;7.55;;;;;;;9.47;100.00;99904.47;6122237;23;19911;-91
2022/09/27 09:15:24;;;;;;;14.70;7.45;;;;;;;9.44;100.00;99913.16;6123238;23;20025;-91
2022/09/27 09:18:05;;;;;;;17.83;8.45;;;;;;;9.39;100.00;99912.47;6121740;23;20010;-91
2022/09/27 09:21:06;;;;;;;17.80;8.38;;;;;;;9.43;100.00;99910.63;6121293;23;20013;-90
2022/09/27 09:23:45;;;;;;;16.00;8.45;;;;;;;9.39;100.00;99909.03;6123485;23;20013;-91
2022/09/27 09:26:38;;;;;;;18.05;9.20;;;;;;;9.38;100.00;99905.59;6121168;23;20006;-91
2022/09/27 09:29:51;;;;;;;16.58;9.38;;;;;;;9.45;100.00;99919.19;6122990;23;20070;-91
2022/09/27 09:32:29;;;;;;;17.05;8.90;;;;;;;9.40;100.00;99924.50;6078914;23;20014;-90
2022/09/27 09:35:13;;;;;;;16.52;8.93;;;;;;;9.36;100.00;99916.88;6121571;23;20340;-91
2022/09/27 09:37:43;;;;;;;16.33;8.65;;;;;;;9.35;100.00;99915.19;6121041;23;20016;-91
2022/09/27 09:40:17;;;;;;;17.17;8.80;;;;;;;9.43;100.00;99926.97;6121660;23;20006;-92
2022/09/27 09:42:49;;;;;;;;;;;;;;;9.50;100.00;99920.72;6123773;23;20010;-91
2022/09/27 09:45:20;;;;;;;17.70;8.52;;;;;;;9.50;100.00;99918.13;6123090;23;19904;-92
2022/09/27 09:48:23;;;;;;;19.17;9.00;;;;;;;9.50;100.00;99915.53;6121220;23;20002;-92
2022/09/27 09:50:51;;;;;;;18.92;9.20;;;;;;;9.43;100.00;99908.88;6121176;23;20014;-91
2022/09/27 09:53:31;;;;;;;15.65;8.77;;;;;;;9.41;100.00;99913.28;6121440;23;20333;-92
2022/09/27 09:56:02;;;;;;;17.98;8.10;;;;;;;9.41;100.00;99913.28;6122804;23;20013;-92
2022/09/27 09:58:38;;;;;;;13.13;7.35;;;;;;;9.21;100.00;99884.63;6122463;23;20010;-91
2022/09/27 10:01:41;;;;;;;8.68;4.72;;;;;;;9.16;100.00;99899.47;6121357;23;20463;-93
2022/09/27 10:04:14;;;;;;;7.25;3.22;;;;;;;9.07;100.00;99908.38;6093459;23;20009;-92
2022/09/27 10:06:40;;;;;;;4.93;2.40;;;;;;;8.82;100.00;99885.94;6122188;23;20008;-93
2022/09/27 10:09:05;;;;;;;6.45;2.17;;;;;;;8.95;100.00;99923.41;6122521;23;20069;-93
2022/09/27 10:11:37;;;;;;;4.75;2.42;;;;;;;8.72;100.00;99885.41;6123299;23;20340;-93
2022/09/27 10:14:12;;;;;;;4.82;2.13;;;;;;;8.73;100.00;99882.75;6121613;23;20241;-94
2022/09/27 10:16:41;;;;;;;5.05;2.15;;;;;;;8.76;100.00;99880.97;6123506;23;20443;-93
2022/09/27 10:19:08;;;;;;;4.28;2.10;;;;;;;8.84;100.00;99881.56;6121110;23;20057;-94
2022/09/27 10:21:38;;;;;;;5.70;2.47;;;;;;;8.89;100.00;99887.44;6121227;23;20024;-93
2022/09/27 10:24:13;;;;;;;9.05;3.03;;;;;;;9.03;100.00;99898.16;6121946;23;20002;-93
2022/09/27 10:26:39;;;;;;;;;;;;;;;9.27;100.00;99923.25;6124394;23;20056;-94
2022/09/27 10:29:29;;;;;;;7.22;3.78;;;;;;;9.13;100.00;99881.47;6121778;23;19897;-93
2022/09/27 10:31:55;;;;;;;8.40;4.40;;;;;;;9.28;100.00;99900.81;6124133;23;20005;-92
2022/09/27 10:34:33;;;;;;;7.30;3.75;;;;;;;9.29;100.00;99892.97;6122915;23;20085;-94
2022/09/27 10:37:16;;;;;;;5.78;2.90;;;;;;;9.37;100.00;99918.59;6124774;23;20006;-93
2022/09/27 10:39:43;;;;;;;4.82;2.20;;;;;;;9.26;100.00;99916.38;6121488;23;20009;-93
2022/09/27 10:42:35;;;;;;;5.30;2.22;;;;;;;9.16;100.00;99906.38;6123475;23;20006;-92
2022/09/27 10:45:29;;;;;;;6.32;2.05;;;;;;;9.27;100.00;99910.31;6123885;23;20033;-93
2022/09/27 10:47:55;;;;;;;8.68;2.58;;;;;;;9.14;100.00;99893.50;6120941;23;20084;-92
2022/09/27 10:50:25;;;;;;;5.72;1.67;;;;;;;9.13;100.00;99894.41;6122526;23;20060;-93
2022/09/27 10:53:04;;;;;;;3.35;1.50;;;;;;;9.14;100.00;99897.84;6122643;23;20010;-91
2022/09/27 10:55:33;;;;;;;4.78;1.50;;;;;;;9.21;100.00;99909.66;6122996;23;20440;-93
2022/09/27 10:58:00;;;;;;;4.32;1.50;;;;;;;9.26;100.00;99915.53;6122887;23;20047;-94
2022/09/27 11:00:31;;;;;;;3.75;1.40;;;;;;;9.23;100.00;99913.03;6120353;23;20081;-92
2022/09/27 11:03:00;;;;;;;4.85;1.60;;;;;;;9.19;100.00;99889.03;6123099;23;20444;-92
2022/09/27 11:05:26;;;;;;;3.00;1.40;;;;;;;9.37;100.00;99916.00;6121673;23;20229;-92
2022/09/27 11:08:01;;;;;;;5.38;1.48;;;;;;;9.29;100.00;99897.31;6121051;23;20032;-93
2022/09/27 11:10:35;;;;;;;3.08;1.60;;;;;;;9.40;100.00;99916.75;6121463;23;20040;-92
2022/09/27 11:13:14;;;;;;;2.45;1.23;;;;;;;9.25;100.00;99890.56;6122806;23;20002;-93
2022/09/27 11:15:48;;;;;;;2.05;0.98;;;;;;;9.43;100.00;99921.81;6121136;23;20053;-92
2022/09/27 11:18:25;;;;;;;;;;;;;;;9.49;100.00;99929.34;6121111;23;20081;-92
2022/09/27 11:20:57;;;;;;;2.42;1.10;;;;;;;9.41;100.00;99913.28;6121030;23;19916;-94
2022/09/27 11:23:29;;;;;;;2.15;1.00;;;;;;;9.42;100.00;99908.91;6120765;23;20403;-92
2022/09/27 11:26:25;;;;;;;3.10;1.30;;;;;;;9.39;100.00;99898.69;6122449;23;20012;-92
2022/09/27 11:29:10;;;;;;;2.20;1.10;;;;;;;9.44;100.00;99901.97;6145137;23;20053;-93
2022/09/27 11:32:01;;;;;;;2.80;1.10;;;;;;;9.52;100.00;99906.00;6122060;23;20013;-93
2022/09/27 11:35:02;;;;;;;2.47;1.00;;;;;;;9.78;100.00;99927.50;6122643;23;20005;-93
2022/09/27 11:38:01;;;;;;;2.33;0.98;;;;;;;9.81;100.00;99917.91;6124934;23;20006;-92
2022/09/27 11:40:52;;;;;;;3.20;1.00;;;;;;;9.85;100.00;99914.31;6122794;23;20274;-92
2022/09/27 11:43:26;;;;;;;3.00;1.00;;;;;;;9.93;100.00;99913.19;6124498;23;20401;-92
2022/09/27 11:45:51;;;;;;;;;;;;;;;10.06;100.00;99915.28;6125080;23;20432;-92
2022/09/27 11:48:48;;;;;;;2.27;0.90;;;;;;;10.08;100.00;99915.22;6124175;23;19916;-91
2022/09/27 11:51:21;;;;;;;1.98;0.90;;;;;;;10.10;100.00;99918.63;6124011;23;20024;-93
2022/09/27 11:54:11;;;;;;;1.63;0.83;;;;;;;10.07;100.00;99906.63;6122860;23;20010;-92
2022/09/27 11:56:48;;;;;;;2.35;1.10;;;;;;;9.97;100.00;99886.28;6124186;23;20033;-92
2022/09/27 11:59:32;;;;;;;1.40;0.80;;;;;;;10.09;100.00;99902.22;6124132;23;20013;-92
2022/09/27 12:02:29;;;;;;;1.80;0.85;;;;;;;10.08;100.00;99897.09;6124680;23;20039;-93
2022/09/27 12:05:15;;;;;;;1.02;0.63;;;;;;;10.01;100.00;99900.81;6124456;23;20336;-92